x

Virginia Beach 64 Nm East Of Virginia Beach, Va (44014) Wave Buoy

11:50 - Sat 10th Dec 2016 All times are EST. -5 hours from GMT.

  • Sig Wave height 2.3ft
  • Swell Direction
  • Peak Period 5s
  • Average Period 4s
  • Wind
    9mph, 16mph gusts
  • Sea Temp 58°f
  • Ar Temp 42°f
  • Sea Pressure 1033.2mb
  • Virginia Beach 64 Nm East Of Virginia Beach, Va
  • Virginia Beach 64 Nm East Of Virginia Beach, Va

More Historic Weather Station data

Upgrade to MSW Pro to gain access to the past 30 days of data for over 8000 Wavebouys and Weather Stations around the globe.

Join Pro

Comparision Forecast

View Surf forecast
   
Sáb 12/10 11:50 2.5ft 5s 4s 9 16 mph 1033.2mb 58f 42f
10:50 2.5ft 4s 4s 13 18 mph 1033.3mb 58f 41f
9:50 3ft 4s 4s 13 20 mph 1032.8mb 58f 41f
8:50 3.5ft 4s 4s 16 20 mph 1032.3mb 58f 41f
7:50 3.5ft 6s 4s 16 20 mph 1032.3mb 58f 41f
6:50 3ft 6s 4s 18 27 mph 1032.1mb 58f 40f
5:50 3ft 7s 4s 18 22 mph 1031.3mb 58f 40f
4:50 3.5ft 7s 4s 16 20 mph 1031mb 58f 40f
3:50 3ft 6s 4s 13 20 mph 1030.6mb 58f 40f
2:50 3.5ft 6s 5s 13 18 mph 1030.2mb 58f 40f
1:50 3.5ft 7s 5s 11 16 mph 1030.1mb 58f 40f
12:50 3.5ft 6s 5s 11 18 mph 1030.7mb 58f 40f
11:50 4ft 6s 5s 11 18 mph 1031.3mb 58f 40f
10:50 4ft 7s 5s 13 18 mph 1032.2mb 58f 40f
9:50 4.5ft 6s 5s 16 20 mph 1032.8mb 58f 40f
8:50 4.5ft 6s 5s 13 20 mph 1032.5mb 58f 40f
7:50 4.5ft 6s 5s 16 20 mph 1032mb 58f 39f
6:50 4.5ft 7s 5s 16 22 mph 1031.5mb 58f 39f
5:50 5ft 6s 5s 18 25 mph 1030.8mb 58f 40f
4:50 5ft 6s 5s 20 25 mph 1030.2mb 58f 40f
3:50 5ft 6s 5s 20 25 mph 1030mb 58f 40f
2:50 5ft 6s 5s 20 27 mph 1029.8mb 58f 40f
1:50 6ft 6s 5s 20 31 mph 1028.8mb 58f 40f
12:50 6ft 6s 5s 20 27 mph 1028.3mb 58f 41f
Sex 12/09 11:50 5.5ft 6s 5s 20 27 mph 1028.7mb 58f 41f
10:50 6ft 6s 5s 20 29 mph 1028.5mb 58f 41f
9:50 6ft 6s 5s 25 31 mph 1028.1mb 58f 43f
8:50 6ft 6s 5s 22 29 mph 1028.1mb 58f 43f
7:50 6ft 6s 5s 27 34 mph 1027.8mb 58f 43f
6:50 6.5ft 6s 5s 25 31 mph 1027.3mb 58f 42f
5:50 6ft 6s 5s 25 34 mph 1026.7mb 59f 42f
4:50 6ft 7s 5s 22 31 mph 1026.3mb 59f 42f
3:50 5.5ft 5s 5s 22 29 mph 1025.6mb 59f 42f
2:50 6ft 7s 5s 22 27 mph 1025.1mb 58f 41f
1:50 6ft 7s 5s 22 27 mph 1024.5mb 58f 41f
12:50 6ft 7s 5s 20 27 mph 1024.5mb 58f 40f
11:50 5.5ft 7s 5s 18 25 mph 1024.9mb 58f 40f
10:50 6ft 7s 5s 20 29 mph 1025.2mb 58f 40f
9:50 7ft 7s 5s 22 29 mph 1025.1mb 58f 40f
8:50 7.5ft 6s 5s 20 29 mph 1024.4mb 58f 40f
7:50 8ft 7s 6s 22 31 mph 1023.5mb 58f 41f
6:50 8ft 7s 6s 25 34 mph 1022.9mb 58f 41f
5:50 8ft 7s 6s 27 34 mph 1022.2mb 58f 42f
4:50 7.5ft 7s 5s 25 34 mph 1021.5mb 58f 42f
3:50 8ft 6s 5s 27 36 mph 1020.9mb 59f 43f
2:50 7ft 6s 5s 27 34 mph 1020.4mb 59f 45f
1:50 5.5ft 5s 5s 27 31 mph 1019.6mb 59f 46f
12:50 5ft 6s 5s 22 27 mph 1018.9mb 59f 48f
Qui 12/08 11:50 5ft 5s 5s 25 31 mph 1018.6mb 58f 50f
10:50 5ft 5s 4s 25 29 mph 1018.8mb 58f 50f
9:50 4.5ft 4s 4s 22 29 mph 1018.5mb 58f 50f
8:50 4.5ft 5s 4s 22 27 mph 1018.2mb 58f 50f
7:50 4.5ft 5s 4s 22 27 mph 1017.9mb 59f 50f
6:50 4.5ft 4s 4s 20 25 mph 1017.7mb 59f 51f
5:50 4.5ft 4s 4s 22 27 mph 1016.9mb 59f 51f
4:50 4ft 8s 4s 25 29 mph 1015.5mb 59f 51f
3:50 3.5ft 11s 5s 25 29 mph 1014.2mb 59f 51f
2:50 3.5ft 9s 6s 18 22 mph 1014mb 59f 53f
1:50 3.5ft 8s 7s 13 18 mph 1014.4mb 59f 52f
12:50 4ft 9s 7s 9 13 mph 1014.7mb 59f 54f
11:50 3.5ft 10s 7s 7 9 mph 1015.5mb 59f 53f
10:50 4.5ft 10s 7s 7 9 mph 1016.9mb 59f 53f
9:50 4ft 10s 7s 4 9 mph 1017.3mb 59f 53f
8:50 3.5ft 8s 6s 4 9 mph 1017.6mb 58f 53f
7:50 4.5ft 8s 7s 2 4 mph 1017.2mb 58f 52f
6:50 4.5ft 10s 7s 4 7 mph 1016.8mb 58f 52f
5:50 4.5ft 9s 7s 7 9 mph 1017mb 58f 51f
4:50 5ft 10s 7s 9 11 mph 1016.9mb 58f 51f
3:50 5ft 11s 7s 9 13 mph 1017mb 58f 51f
2:50 5.5ft 8s 7s 9 13 mph 1016.9mb 58f 52f
12:50 5.5ft 9s 6s 11 16 mph 1017.4mb 58f 52f
Qua 12/07 11:50 6ft 9s 6s 11 13 mph 1017.4mb 58f 52f
10:50 6.5ft 9s 6s 13 16 mph 1018mb 58f 53f
9:50 7.5ft 9s 7s 11 16 mph 1017.9mb 58f 53f
8:50 7ft 11s 7s 13 16 mph 1018mb 58f 53f
7:50 7ft 10s 7s 18 22 mph 1018.1mb 59f 53f
6:50 8ft 12s 7s 13 18 mph 1017.7mb 59f 53f
5:50 7ft 9s 6s 11 16 mph 1017.5mb 59f 52f
4:50 7ft 10s 6s 16 20 mph 1016.8mb 59f 52f
3:50 7.5ft 10s 6s 16 20 mph 1016mb 59f 53f
2:50 8ft 10s 6s 16 20 mph 1015mb 59f 52f
1:50 8ft 11s 6s 20 22 mph 1014.2mb 59f 52f
12:50 7.5ft 11s 6s 20 25 mph 1014.1mb 59f 52f
11:50 7.5ft 10s 5s 22 27 mph 1014.3mb 59f 52f
10:50 8.5ft 6s 6s 22 29 mph 1014.6mb 59f 51f
9:50 9.5ft 8s 6s 25 29 mph 1014.5mb 59f 52f
8:50 9.5ft 9s 6s 27 31 mph 1013.3mb 59f 53f
7:50 10ft 8s 6s 27 31 mph 1012mb 59f 53f
6:50 10ft 6s 6s 29 36 mph 1010.6mb 59f 53f